Time;durP1;ratioP1;P1;durP2;ratioP2;P2;SDS_P1;SDS_P2;PMS_P1;PMS_P2;Temp;Humidity;BMP_temperature;BMP_pressure;BME280_temperature;BME280_humidity;BME280_pressure;Samples;Min_cycle;Max_cycle;Signal;HPM_P1;HPM_P2
2023/06/21 00:00:38;;;;;;;6.80;5.17;;;;;;;;;;5036506;28;20468;-80
2023/06/21 00:03:05;;;;;;;6.43;5.43;;;;;;;;;;5064003;28;20443;-81
2023/06/21 00:05:33;;;;;;;5.83;4.60;;;;;;;;;;5048288;28;20856;-81
2023/06/21 00:08:00;;;;;;;10.87;5.63;;;;;;;;;;5065029;28;20467;-80
2023/06/21 00:10:29;;;;;;;5.80;5.30;;;;;;;;;;5064817;28;20471;-82
2023/06/21 00:12:56;;;;;;;12.10;5.80;;;;;;;;;;5059941;28;20930;-82
2023/06/21 00:15:22;;;;;;;6.77;5.27;;;;;;;;;;5065772;28;20836;-80
2023/06/21 00:17:49;;;;;;;5.87;5.10;;;;;;;;;;5068217;28;20472;-80
2023/06/21 00:20:16;;;;;;;7.03;6.33;;;;;;;;;;5066885;28;20471;-80
2023/06/21 00:22:45;;;;;;;9.00;6.90;;;;;;;;;;5057419;28;20486;-80
2023/06/21 00:25:12;;;;;;;8.90;7.60;;;;;;;;;;5048804;28;20554;-80
2023/06/21 00:27:42;;;;;;;10.10;9.10;;;;;;;;;;5065871;28;20479;-80
2023/06/21 00:30:10;;;;;;;13.47;10.80;;;;;;;;;;5070046;28;21016;-80
2023/06/21 00:32:37;;;;;;;15.17;11.00;;;;;;;;;;5059581;28;20525;-80
2023/06/21 00:35:04;;;;;;;14.10;11.03;;;;;;;;;;5044499;28;20514;-80
2023/06/21 00:37:30;;;;;;;11.13;10.03;;;;;;;;;;5070162;28;20474;-80
2023/06/21 00:39:58;;;;;;;11.70;10.10;;;;;;;;;;5070070;28;20475;-80
2023/06/21 00:42:25;;;;;;;11.23;9.77;;;;;;;;;;5046279;28;20451;-80
2023/06/21 00:44:51;;;;;;;15.00;10.00;;;;;;;;;;5047203;28;20472;-81
2023/06/21 00:47:18;;;;;;;11.17;8.67;;;;;;;;;;5042906;28;20888;-80
2023/06/21 00:49:44;;;;;;;12.87;9.80;;;;;;;;;;5059720;28;20499;-80
2023/06/21 00:52:11;;;;;;;12.53;10.20;;;;;;;;;;5070435;28;20447;-80
2023/06/21 00:54:37;;;;;;;10.17;8.33;;;;;;;;;;5072288;28;20478;-80
2023/06/21 00:57:05;;;;;;;12.30;9.50;;;;;;;;;;5056345;28;20950;-81
2023/06/21 00:59:32;;;;;;;7.67;6.87;;;;;;;;;;5050463;28;20475;-80
2023/06/21 01:02:00;;;;;;;10.63;8.63;;;;;;;;;;5053305;28;20450;-81
2023/06/21 01:04:28;;;;;;;10.80;7.53;;;;;;;;;;5063054;28;20564;-81
2023/06/21 01:07:01;;;;;;;9.37;7.87;;;;;;;;;;5064607;28;20895;-79
2023/06/21 01:09:33;;;;;;;9.43;8.43;;;;;;;;;;5061088;28;20463;-81
2023/06/21 01:12:07;;;;;;;10.97;8.57;;;;;;;;;;5059265;28;20544;-81
2023/06/21 01:14:40;;;;;;;10.67;9.60;;;;;;;;;;5060426;28;20475;-80
2023/06/21 01:17:07;;;;;;;13.43;8.70;;;;;;;;;;5057433;28;20482;-81
2023/06/21 01:19:40;;;;;;;12.80;9.93;;;;;;;;;;5057475;28;20471;-80
2023/06/21 01:22:14;;;;;;;11.87;9.20;;;;;;;;;;5060593;28;20452;-80
2023/06/21 01:24:45;;;;;;;13.07;11.00;;;;;;;;;;5054468;28;20463;-80
2023/06/21 01:27:27;;;;;;;14.20;10.60;;;;;;;;;;5055755;28;20993;-80
2023/06/21 01:29:59;;;;;;;10.93;8.50;;;;;;;;;;5044071;28;20472;-80
2023/06/21 01:32:27;;;;;;;13.27;10.33;;;;;;;;;;5038257;28;20459;-80
2023/06/21 01:34:54;;;;;;;12.83;9.50;;;;;;;;;;5057176;28;20529;-81
2023/06/21 01:37:20;;;;;;;13.33;10.70;;;;;;;;;;5057081;28;20476;-80
2023/06/21 01:39:47;;;;;;;11.67;10.47;;;;;;;;;;5074839;28;20468;-80
2023/06/21 01:42:13;;;;;;;16.20;11.63;;;;;;;;;;5083619;28;20451;-80
2023/06/21 01:44:40;;;;;;;14.90;11.43;;;;;;;;;;5055340;28;20476;-81
2023/06/21 01:47:08;;;;;;;15.07;12.33;;;;;;;;;;5059105;28;20462;-80
2023/06/21 01:49:35;;;;;;;20.80;13.80;;;;;;;;;;5049565;28;20476;-80
2023/06/21 01:52:04;;;;;;;16.87;15.03;;;;;;;;;;5051862;28;20449;-80
2023/06/21 01:54:31;;;;;;;23.27;16.97;;;;;;;;;;5060867;28;20473;-82
2023/06/21 01:57:00;;;;;;;21.23;15.60;;;;;;;;;;5053196;28;20440;-82
2023/06/21 01:59:26;;;;;;;21.17;16.63;;;;;;;;;;5056569;28;20472;-82
2023/06/21 02:01:53;;;;;;;22.20;18.07;;;;;;;;;;5052049;28;20452;-82
2023/06/21 02:04:21;;;;;;;21.20;18.50;;;;;;;;;;5056967;28;20475;-82
2023/06/21 02:06:49;;;;;;;23.47;18.60;;;;;;;;;;5050416;28;20448;-82
2023/06/21 02:09:19;;;;;;;20.13;16.43;;;;;;;;;;5054339;28;20471;-82
2023/06/21 02:11:45;;;;;;;24.57;19.83;;;;;;;;;;5059191;28;20440;-82
2023/06/21 02:14:12;;;;;;;30.10;22.40;;;;;;;;;;5062053;28;20464;-82
2023/06/21 02:16:38;;;;;;;25.57;20.70;;;;;;;;;;5060112;28;20451;-81
2023/06/21 02:19:05;;;;;;;33.83;22.83;;;;;;;;;;5053974;28;20863;-81
2023/06/21 02:21:33;;;;;;;28.63;24.43;;;;;;;;;;5056551;28;21004;-82
2023/06/21 02:23:59;;;;;;;26.67;23.00;;;;;;;;;;5050306;28;20447;-82
2023/06/21 02:26:27;;;;;;;29.37;23.97;;;;;;;;;;5055677;28;20448;-82
2023/06/21 02:28:54;;;;;;;31.17;25.27;;;;;;;;;;5053436;28;20475;-81
2023/06/21 02:31:20;;;;;;;33.27;27.67;;;;;;;;;;5074132;28;20448;-79
2023/06/21 02:33:48;;;;;;;38.60;30.50;;;;;;;;;;5043197;28;20510;-80
2023/06/21 02:36:15;;;;;;;34.50;27.73;;;;;;;;;;5052683;28;20458;-80
2023/06/21 02:38:43;;;;;;;33.63;28.47;;;;;;;;;;5048689;28;20480;-80
2023/06/21 02:41:09;;;;;;;34.37;28.37;;;;;;;;;;5068260;28;20842;-80
2023/06/21 02:43:35;;;;;;;42.27;30.13;;;;;;;;;;5065362;28;20930;-80
2023/06/21 02:46:02;;;;;;;34.37;28.87;;;;;;;;;;5059525;28;20949;-80
2023/06/21 02:48:29;;;;;;;34.57;30.53;;;;;;;;;;5062713;28;20475;-80
2023/06/21 02:50:56;;;;;;;30.77;27.30;;;;;;;;;;5074092;28;20516;-81
2023/06/21 02:53:22;;;;;;;38.30;30.70;;;;;;;;;;5057247;28;20452;-80
2023/06/21 02:55:50;;;;;;;38.03;30.80;;;;;;;;;;5061044;28;20501;-81
2023/06/21 02:58:16;;;;;;;36.33;30.13;;;;;;;;;;5065063;28;20841;-80
2023/06/21 03:00:43;;;;;;;38.10;32.00;;;;;;;;;;5055255;28;20871;-80
2023/06/21 03:03:09;;;;;;;37.60;30.60;;;;;;;;;;5064246;28;20472;-81
2023/06/21 03:05:36;;;;;;;40.40;33.00;;;;;;;;;;5054825;28;20550;-80
2023/06/21 03:08:07;;;;;;;37.33;30.90;;;;;;;;;;5041424;28;20467;-80
2023/06/21 03:10:33;;;;;;;36.90;31.70;;;;;;;;;;5023265;28;20464;-81
2023/06/21 03:13:01;;;;;;;40.70;34.57;;;;;;;;;;5059508;28;20996;-81
2023/06/21 03:15:28;;;;;;;42.93;34.20;;;;;;;;;;5056130;28;20471;-82
2023/06/21 03:17:54;;;;;;;37.07;32.50;;;;;;;;;;5054300;28;20486;-80
2023/06/21 03:20:24;;;;;;;47.13;33.90;;;;;;;;;;5056263;28;20477;-80
2023/06/21 03:22:51;;;;;;;43.57;35.30;;;;;;;;;;5075478;28;20536;-82
2023/06/21 03:25:17;;;;;;;40.30;33.50;;;;;;;;;;5076037;28;20477;-79
2023/06/21 03:27:44;;;;;;;41.97;36.30;;;;;;;;;;5073280;28;20486;-80
2023/06/21 03:30:13;;;;;;;39.53;33.70;;;;;;;;;;5081379;28;20478;-83
2023/06/21 03:32:40;;;;;;;43.53;36.53;;;;;;;;;;5077448;28;20470;-82
2023/06/21 03:35:07;;;;;;;40.07;33.27;;;;;;;;;;5082379;28;20473;-82
2023/06/21 03:37:33;;;;;;;40.90;34.00;;;;;;;;;;5076683;28;20470;-81
2023/06/21 03:40:00;;;;;;;45.17;34.90;;;;;;;;;;5087371;28;20535;-80
2023/06/21 03:42:26;;;;;;;42.37;33.93;;;;;;;;;;5078645;28;20460;-81
2023/06/21 03:44:55;;;;;;;39.43;32.70;;;;;;;;;;5079373;28;20485;-80
2023/06/21 03:47:23;;;;;;;43.67;34.30;;;;;;;;;;5080214;28;20582;-80
2023/06/21 03:49:50;;;;;;;41.67;34.27;;;;;;;;;;5073992;28;20554;-81
2023/06/21 03:52:16;;;;;;;42.43;34.10;;;;;;;;;;5082812;28;20458;-82
2023/06/21 03:54:42;;;;;;;39.47;34.40;;;;;;;;;;5084854;28;20470;-82
2023/06/21 03:57:09;;;;;;;44.93;35.93;;;;;;;;;;5078362;28;20552;-82
2023/06/21 03:59:35;;;;;;;41.60;35.20;;;;;;;;;;5080482;28;20489;-80
2023/06/21 04:02:01;;;;;;;40.63;34.10;;;;;;;;;;5075376;28;20481;-82
2023/06/21 04:04:29;;;;;;;39.13;32.60;;;;;;;;;;5070638;28;20473;-82
2023/06/21 04:06:55;;;;;;;40.47;34.03;;;;;;;;;;5081780;28;20457;-82
2023/06/21 04:09:22;;;;;;;38.63;33.47;;;;;;;;;;5082320;28;21085;-82
2023/06/21 04:11:48;;;;;;;38.03;33.93;;;;;;;;;;5069149;28;20496;-81
2023/06/21 04:14:15;;;;;;;44.57;34.97;;;;;;;;;;5084109;28;20469;-82
2023/06/21 04:16:42;;;;;;;42.40;32.90;;;;;;;;;;5079640;28;20459;-82
2023/06/21 04:19:09;;;;;;;38.27;31.80;;;;;;;;;;5077716;28;20855;-81
2023/06/21 04:21:36;;;;;;;36.70;30.20;;;;;;;;;;5077676;28;20487;-82
2023/06/21 04:24:03;;;;;;;35.67;30.90;;;;;;;;;;5085388;28;20485;-82
2023/06/21 04:26:29;;;;;;;37.00;30.47;;;;;;;;;;5085293;28;20451;-81
2023/06/21 04:29:01;;;;;;;33.17;27.60;;;;;;;;;;5080848;28;20469;-82
2023/06/21 04:31:27;;;;;;;36.40;31.60;;;;;;;;;;5071687;28;20452;-82
2023/06/21 04:33:54;;;;;;;33.00;29.57;;;;;;;;;;5072545;28;20481;-82
2023/06/21 04:36:20;;;;;;;36.27;29.17;;;;;;;;;;5069694;28;20447;-82
2023/06/21 04:38:48;;;;;;;34.97;30.03;;;;;;;;;;5061952;28;21010;-82
2023/06/21 04:41:16;;;;;;;33.50;29.63;;;;;;;;;;5078253;28;20562;-82
2023/06/21 04:43:43;;;;;;;33.40;29.77;;;;;;;;;;5079206;28;20443;-81
2023/06/21 04:46:09;;;;;;;43.97;30.33;;;;;;;;;;5080496;28;20983;-82
2023/06/21 04:48:37;;;;;;;37.17;32.50;;;;;;;;;;5075957;28;20467;-82
2023/06/21 04:51:04;;;;;;;38.70;31.47;;;;;;;;;;5076837;28;20462;-82
2023/06/21 04:53:30;;;;;;;37.87;33.43;;;;;;;;;;5071249;28;20446;-82
2023/06/21 04:55:58;;;;;;;41.47;32.33;;;;;;;;;;5082901;28;20481;-82
2023/06/21 04:58:24;;;;;;;39.07;31.60;;;;;;;;;;5092062;28;20466;-80
2023/06/21 05:00:51;;;;;;;35.30;31.17;;;;;;;;;;5083322;28;20470;-82
2023/06/21 05:03:17;;;;;;;37.97;32.20;;;;;;;;;;5085562;28;20451;-80
2023/06/21 05:05:44;;;;;;;42.67;34.17;;;;;;;;;;5082235;28;20485;-80
2023/06/21 05:08:10;;;;;;;44.33;33.83;;;;;;;;;;5085234;28;20473;-80
2023/06/21 05:10:37;;;;;;;39.60;34.40;;;;;;;;;;5092815;28;20541;-81
2023/06/21 05:13:04;;;;;;;42.67;35.73;;;;;;;;;;5078926;28;20795;-81
2023/06/21 05:15:31;;;;;;;41.00;33.50;;;;;;;;;;5075398;28;20473;-82
2023/06/21 05:17:58;;;;;;;42.70;34.57;;;;;;;;;;5079965;28;20483;-80
2023/06/21 05:20:25;;;;;;;45.67;35.77;;;;;;;;;;5085065;28;20468;-80
2023/06/21 05:22:52;;;;;;;46.50;37.50;;;;;;;;;;5077015;28;20439;-80
2023/06/21 05:25:19;;;;;;;46.80;36.90;;;;;;;;;;5081607;28;20465;-80
2023/06/21 05:27:45;;;;;;;47.23;38.77;;;;;;;;;;5079118;28;20459;-80
2023/06/21 05:30:13;;;;;;;48.43;38.17;;;;;;;;;;5079216;28;20475;-80
2023/06/21 05:32:41;;;;;;;44.97;37.20;;;;;;;;;;5085710;28;20451;-82
2023/06/21 05:35:08;;;;;;;46.03;38.77;;;;;;;;;;5080886;28;20498;-80
2023/06/21 05:37:36;;;;;;;43.33;34.33;;;;;;;;;;5083444;28;20470;-80
2023/06/21 05:40:04;;;;;;;45.20;36.27;;;;;;;;;;5086671;28;20490;-80
2023/06/21 05:42:30;;;;;;;46.80;38.50;;;;;;;;;;5089454;28;21058;-80
2023/06/21 05:44:57;;;;;;;45.07;37.33;;;;;;;;;;5080671;28;21003;-80
2023/06/21 05:47:25;;;;;;;50.10;38.70;;;;;;;;;;5079076;28;20470;-81
2023/06/21 05:49:51;;;;;;;45.07;38.13;;;;;;;;;;5081650;28;20545;-82
2023/06/21 05:52:19;;;;;;;46.40;36.87;;;;;;;;;;5091720;28;20453;-81
2023/06/21 05:54:45;;;;;;;49.53;38.83;;;;;;;;;;5087276;28;20551;-79
2023/06/21 05:57:12;;;;;;;44.03;34.83;;;;;;;;;;5081221;28;20469;-81
2023/06/21 05:59:38;;;;;;;46.97;36.37;;;;;;;;;;5086926;28;20478;-79
2023/06/21 06:02:06;;;;;;;50.60;38.83;;;;;;;;;;5086668;28;21008;-81
2023/06/21 06:04:33;;;;;;;47.83;39.57;;;;;;;;;;5085156;28;20471;-82
2023/06/21 06:07:00;;;;;;;51.90;37.60;;;;;;;;;;5088015;28;20450;-81
2023/06/21 06:09:26;;;;;;;41.17;36.27;;;;;;;;;;5087924;28;20854;-81
2023/06/21 06:11:55;;;;;;;50.60;40.70;;;;;;;;;;5083900;28;20451;-81
2023/06/21 06:14:21;;;;;;;52.70;38.33;;;;;;;;;;5093684;28;20465;-81
2023/06/21 06:16:48;;;;;;;44.67;36.90;;;;;;;;;;5077641;28;20439;-81
2023/06/21 06:19:14;;;;;;;54.43;38.10;;;;;;;;;;5085664;28;20469;-82
2023/06/21 06:21:42;;;;;;;51.43;40.07;;;;;;;;;;5086897;28;20489;-81
2023/06/21 06:24:09;;;;;;;51.30;39.43;;;;;;;;;;5082861;28;20463;-81
2023/06/21 06:26:35;;;;;;;43.57;36.40;;;;;;;;;;5086871;28;20471;-81
2023/06/21 06:29:02;;;;;;;47.67;36.07;;;;;;;;;;5081484;28;20454;-81
2023/06/21 06:31:29;;;;;;;46.33;37.20;;;;;;;;;;5087114;28;20442;-81
2023/06/21 06:33:58;;;;;;;45.90;36.50;;;;;;;;;;5083828;28;20459;-81
2023/06/21 06:36:24;;;;;;;43.50;35.60;;;;;;;;;;5068253;28;20447;-82
2023/06/21 06:38:52;;;;;;;46.20;36.13;;;;;;;;;;5080759;28;20840;-82
2023/06/21 06:41:19;;;;;;;43.77;35.27;;;;;;;;;;5075907;28;20506;-82
2023/06/21 06:43:46;;;;;;;42.30;34.73;;;;;;;;;;5084172;28;20439;-83
2023/06/21 06:46:14;;;;;;;39.80;32.97;;;;;;;;;;5082019;28;20445;-81
2023/06/21 06:48:40;;;;;;;42.77;35.50;;;;;;;;;;5077816;28;20467;-81
2023/06/21 06:51:07;;;;;;;37.97;32.73;;;;;;;;;;5083590;28;20443;-82
2023/06/21 06:53:33;;;;;;;41.90;33.83;;;;;;;;;;5081807;28;20448;-82
2023/06/21 06:56:01;;;;;;;43.90;35.23;;;;;;;;;;5075683;28;20474;-83
2023/06/21 06:58:28;;;;;;;41.47;34.40;;;;;;;;;;5081687;28;20474;-81
2023/06/21 07:00:55;;;;;;;45.60;34.97;;;;;;;;;;5079063;28;20471;-82
2023/06/21 07:03:21;;;;;;;44.17;33.83;;;;;;;;;;5079232;28;20446;-82
2023/06/21 07:05:48;;;;;;;38.53;32.03;;;;;;;;;;5083433;28;20467;-81
2023/06/21 07:08:14;;;;;;;39.67;33.57;;;;;;;;;;5084578;28;20470;-82
2023/06/21 07:10:41;;;;;;;35.60;30.00;;;;;;;;;;5076611;28;20462;-82
2023/06/21 07:13:09;;;;;;;40.23;32.40;;;;;;;;;;5079796;28;20440;-81
2023/06/21 07:15:35;;;;;;;30.17;26.60;;;;;;;;;;5079617;28;20478;-82
2023/06/21 07:18:01;;;;;;;38.67;31.27;;;;;;;;;;5084819;28;20493;-81
2023/06/21 07:20:28;;;;;;;35.67;31.10;;;;;;;;;;5087933;28;20477;-82
2023/06/21 07:22:55;;;;;;;31.03;27.67;;;;;;;;;;5089699;28;20478;-82
2023/06/21 07:25:22;;;;;;;36.23;29.50;;;;;;;;;;5081446;28;20565;-81
2023/06/21 07:27:48;;;;;;;37.07;30.53;;;;;;;;;;5083204;28;20987;-81
2023/06/21 07:30:16;;;;;;;35.50;29.60;;;;;;;;;;5077377;28;20471;-81
2023/06/21 07:32:43;;;;;;;37.63;30.93;;;;;;;;;;5083139;28;20944;-81
2023/06/21 07:35:09;;;;;;;35.27;29.83;;;;;;;;;;5067577;28;20849;-81
2023/06/21 07:37:36;;;;;;;35.10;29.40;;;;;;;;;;5073490;28;20537;-81
2023/06/21 07:40:04;;;;;;;34.33;28.00;;;;;;;;;;5085113;28;20474;-81
2023/06/21 07:42:31;;;;;;;36.57;29.83;;;;;;;;;;5080383;28;20478;-81
2023/06/21 07:44:57;;;;;;;41.03;29.10;;;;;;;;;;5074160;28;20469;-80
2023/06/21 07:47:25;;;;;;;29.43;26.17;;;;;;;;;;5082090;28;20877;-81
2023/06/21 07:49:51;;;;;;;29.40;25.77;;;;;;;;;;5067330;28;20479;-81
2023/06/21 07:52:18;;;;;;;36.70;27.70;;;;;;;;;;5074992;28;20925;-81
2023/06/21 07:54:47;;;;;;;32.93;28.00;;;;;;;;;;5077915;28;20471;-81
2023/06/21 07:57:14;;;;;;;32.07;26.93;;;;;;;;;;5075903;28;21003;-81
2023/06/21 07:59:40;;;;;;;32.20;26.57;;;;;;;;;;5086352;28;20482;-80
2023/06/21 08:02:07;;;;;;;29.33;26.13;;;;;;;;;;5078943;28;20487;-81
2023/06/21 08:04:35;;;;;;;30.93;26.63;;;;;;;;;;5078202;28;21004;-81
2023/06/21 08:07:01;;;;;;;29.90;26.70;;;;;;;;;;5069986;28;20451;-81
2023/06/21 08:09:27;;;;;;;30.70;25.90;;;;;;;;;;5074382;28;21017;-81
2023/06/21 08:11:54;;;;;;;32.50;25.20;;;;;;;;;;5073540;28;20437;-81
2023/06/21 08:14:20;;;;;;;32.73;27.43;;;;;;;;;;5080475;28;20475;-80
2023/06/21 08:16:46;;;;;;;29.97;25.83;;;;;;;;;;5079993;28;20958;-80
2023/06/21 08:19:13;;;;;;;26.73;23.77;;;;;;;;;;5086994;28;20465;-80
2023/06/21 08:21:41;;;;;;;26.50;23.37;;;;;;;;;;5087757;28;20478;-79
2023/06/21 08:24:07;;;;;;;23.57;20.53;;;;;;;;;;5058369;28;20534;-79
2023/06/21 08:26:33;;;;;;;27.83;21.73;;;;;;;;;;5078030;28;20471;-80
2023/06/21 08:29:00;;;;;;;26.77;20.67;;;;;;;;;;5079674;28;20463;-81
2023/06/21 08:31:27;;;;;;;24.17;20.87;;;;;;;;;;5074723;28;20956;-80
2023/06/21 08:33:53;;;;;;;24.77;21.10;;;;;;;;;;5082890;28;20447;-80
2023/06/21 08:36:19;;;;;;;20.10;18.00;;;;;;;;;;5078570;28;20458;-80
2023/06/21 08:38:47;;;;;;;23.80;21.23;;;;;;;;;;5079388;28;20976;-80
2023/06/21 08:41:14;;;;;;;22.97;20.47;;;;;;;;;;5085935;28;20458;-80
2023/06/21 08:43:41;;;;;;;22.73;19.50;;;;;;;;;;5094270;28;20456;-80
2023/06/21 08:46:08;;;;;;;22.97;17.97;;;;;;;;;;5082827;28;20443;-79
2023/06/21 08:48:36;;;;;;;26.60;19.23;;;;;;;;;;5084057;28;20462;-80
2023/06/21 08:51:03;;;;;;;22.60;20.20;;;;;;;;;;5076076;28;20481;-79
2023/06/21 08:53:32;;;;;;;23.43;18.60;;;;;;;;;;5081260;28;20808;-80
2023/06/21 08:56:01;;;;;;;19.63;17.60;;;;;;;;;;5082771;28;21015;-80
2023/06/21 08:58:32;;;;;;;22.23;18.17;;;;;;;;;;5073149;28;20488;-80
2023/06/21 09:00:59;;;;;;;22.70;19.10;;;;;;;;;;5079435;28;20470;-80
2023/06/21 09:03:27;;;;;;;27.80;20.80;;;;;;;;;;5082752;28;20479;-79
2023/06/21 09:05:57;;;;;;;21.67;19.30;;;;;;;;;;5086399;28;20471;-80
2023/06/21 09:08:24;;;;;;;22.40;19.97;;;;;;;;;;5085990;28;20473;-80
2023/06/21 09:10:52;;;;;;;27.77;18.70;;;;;;;;;;5082069;28;20475;-79
2023/06/21 09:13:20;;;;;;;24.23;19.00;;;;;;;;;;5081973;28;20457;-80
2023/06/21 09:15:48;;;;;;;19.33;17.23;;;;;;;;;;5080863;28;20569;-81
2023/06/21 09:18:15;;;;;;;19.60;17.47;;;;;;;;;;5082310;28;20553;-81
2023/06/21 09:20:43;;;;;;;20.60;16.83;;;;;;;;;;5085021;28;20475;-80
2023/06/21 09:23:10;;;;;;;18.97;17.00;;;;;;;;;;5083560;28;20482;-81
2023/06/21 09:25:36;;;;;;;18.73;16.83;;;;;;;;;;5082912;28;20469;-80
2023/06/21 09:28:03;;;;;;;17.30;15.50;;;;;;;;;;5079226;28;20477;-80
2023/06/21 09:30:31;;;;;;;25.47;15.37;;;;;;;;;;5076538;28;20470;-80
2023/06/21 09:32:58;;;;;;;26.53;19.63;;;;;;;;;;5078761;28;20466;-80
2023/06/21 09:35:25;;;;;;;21.13;18.90;;;;;;;;;;5083393;28;21049;-79
2023/06/21 09:37:52;;;;;;;17.77;15.30;;;;;;;;;;5084154;28;20478;-80
2023/06/21 09:40:20;;;;;;;20.67;18.53;;;;;;;;;;5086817;28;20470;-80
2023/06/21 09:42:46;;;;;;;18.17;16.30;;;;;;;;;;5080921;28;20486;-81
2023/06/21 09:45:18;;;;;;;18.20;16.30;;;;;;;;;;5084755;28;20479;-81
2023/06/21 09:47:45;;;;;;;20.03;17.10;;;;;;;;;;5089693;28;20496;-80
2023/06/21 09:50:12;;;;;;;20.97;16.67;;;;;;;;;;5080151;28;20471;-80
2023/06/21 09:52:41;;;;;;;16.17;14.40;;;;;;;;;;5082224;28;20446;-80
2023/06/21 09:55:09;;;;;;;15.33;13.73;;;;;;;;;;5090202;28;20478;-79
2023/06/21 09:57:35;;;;;;;17.97;15.83;;;;;;;;;;5076903;28;21108;-80
2023/06/21 10:00:05;;;;;;;16.27;14.63;;;;;;;;;;5088154;28;20883;-81
2023/06/21 10:02:37;;;;;;;15.30;13.50;;;;;;;;;;5086095;28;20556;-80
2023/06/21 10:05:06;;;;;;;16.03;14.00;;;;;;;;;;5084479;28;20462;-80
2023/06/21 10:07:36;;;;;;;14.43;12.93;;;;;;;;;;5084511;28;20467;-80
2023/06/21 10:10:06;;;;;;;16.00;12.60;;;;;;;;;;5082441;28;20497;-80
2023/06/21 10:12:35;;;;;;;15.90;13.77;;;;;;;;;;5081395;28;20454;-81
2023/06/21 10:15:02;;;;;;;15.73;13.83;;;;;;;;;;5086937;28;20458;-79
2023/06/21 10:17:30;;;;;;;14.70;13.30;;;;;;;;;;5084294;28;20476;-80
2023/06/21 10:19:57;;;;;;;14.73;13.17;;;;;;;;;;5081309;28;20497;-80
2023/06/21 10:22:26;;;;;;;14.00;11.90;;;;;;;;;;5081449;28;20532;-79
2023/06/21 10:24:54;;;;;;;18.93;14.47;;;;;;;;;;5078869;28;21086;-79
2023/06/21 10:27:21;;;;;;;19.23;14.03;;;;;;;;;;5054140;28;21000;-79
2023/06/21 10:29:52;;;;;;;11.80;10.60;;;;;;;;;;5086990;28;20471;-79
2023/06/21 10:32:19;;;;;;;15.20;13.70;;;;;;;;;;5074846;28;20460;-79
2023/06/21 10:34:52;;;;;;;14.73;12.60;;;;;;;;;;5081848;28;20471;-79
2023/06/21 10:37:22;;;;;;;16.43;11.93;;;;;;;;;;5086741;28;20508;-79
2023/06/21 10:39:52;;;;;;;15.30;12.37;;;;;;;;;;5081291;28;20463;-79
2023/06/21 10:42:19;;;;;;;13.80;11.90;;;;;;;;;;5078367;28;20482;-78
2023/06/21 10:44:45;;;;;;;15.20;12.77;;;;;;;;;;5088710;28;20477;-80
2023/06/21 10:47:14;;;;;;;11.93;10.83;;;;;;;;;;5090345;28;20466;-80
2023/06/21 10:49:42;;;;;;;13.10;11.20;;;;;;;;;;5082175;28;20475;-80
2023/06/21 10:52:09;;;;;;;10.73;9.73;;;;;;;;;;5091175;28;20453;-81
2023/06/21 10:54:36;;;;;;;11.40;10.30;;;;;;;;;;5085011;28;20471;-80
2023/06/21 10:57:05;;;;;;;10.73;9.73;;;;;;;;;;5084028;28;20443;-79
2023/06/21 10:59:32;;;;;;;9.10;8.17;;;;;;;;;;5078077;28;20469;-82
2023/06/21 11:01:58;;;;;;;12.67;11.47;;;;;;;;;;5089429;28;20454;-78
2023/06/21 11:04:25;;;;;;;11.83;10.73;;;;;;;;;;5087468;28;21003;-81
2023/06/21 11:06:57;;;;;;;13.90;12.40;;;;;;;;;;5083501;28;20941;-81
2023/06/21 11:09:24;;;;;;;12.80;10.77;;;;;;;;;;5083645;28;20535;-78
2023/06/21 11:11:52;;;;;;;10.43;9.43;;;;;;;;;;5082893;28;20457;-78
2023/06/21 11:14:26;;;;;;;10.37;9.47;;;;;;;;;;5077187;28;20470;-80
2023/06/21 11:17:05;;;;;;;9.20;8.00;;;;;;;;;;5073935;28;20453;-79
2023/06/21 11:19:32;;;;;;;10.13;9.13;;;;;;;;;;5089667;28;20470;-82
2023/06/21 11:21:58;;;;;;;13.30;9.57;;;;;;;;;;5093212;28;20461;-80
2023/06/21 11:24:27;;;;;;;13.07;10.30;;;;;;;;;;5078114;28;20475;-79
2023/06/21 11:26:55;;;;;;;9.60;8.70;;;;;;;;;;5083011;28;20443;-78
2023/06/21 11:29:25;;;;;;;10.97;8.17;;;;;;;;;;5097753;28;20465;-78
2023/06/21 11:32:07;;;;;;;11.37;9.50;;;;;;;;;;5089647;28;20450;-79
2023/06/21 11:34:33;;;;;;;8.93;8.03;;;;;;;;;;5077248;28;20474;-81
2023/06/21 11:37:25;;;;;;;8.50;7.80;;;;;;;;;;5085810;28;20454;-80
2023/06/21 11:39:57;;;;;;;9.67;8.03;;;;;;;;;;5082008;28;20840;-79
2023/06/21 11:42:26;;;;;;;7.50;6.70;;;;;;;;;;5087014;28;20456;-79
2023/06/21 11:44:56;;;;;;;7.60;6.90;;;;;;;;;;5082353;28;20470;-84
2023/06/21 11:47:22;;;;;;;7.10;6.40;;;;;;;;;;5080826;28;20802;-79
2023/06/21 11:50:12;;;;;;;6.70;6.10;;;;;;;;;;5088582;28;20466;-78
2023/06/21 11:52:38;;;;;;;7.43;6.73;;;;;;;;;;5088035;28;20450;-79
2023/06/21 11:55:16;;;;;;;8.27;7.57;;;;;;;;;;5085107;28;20841;-80
2023/06/21 11:57:43;;;;;;;6.70;6.13;;;;;;;;;;5085231;28;20868;-80
2023/06/21 12:00:12;;;;;;;5.97;5.47;;;;;;;;;;5095732;28;21072;-78
2023/06/21 12:02:39;;;;;;;6.70;6.10;;;;;;;;;;5085526;28;20486;-78
2023/06/21 12:05:06;;;;;;;7.00;5.83;;;;;;;;;;5079186;28;20914;-78
2023/06/21 12:07:32;;;;;;;6.53;4.90;;;;;;;;;;5086551;28;20469;-80
2023/06/21 12:10:01;;;;;;;6.83;6.20;;;;;;;;;;5081081;28;20482;-82
2023/06/21 12:12:27;;;;;;;6.93;6.33;;;;;;;;;;5088922;28;20445;-80
2023/06/21 12:14:57;;;;;;;6.37;5.77;;;;;;;;;;5084441;28;20855;-78
2023/06/21 12:17:25;;;;;;;9.97;5.77;;;;;;;;;;5078780;28;20967;-81
2023/06/21 12:19:51;;;;;;;7.87;6.07;;;;;;;;;;5073066;28;20498;-79
2023/06/21 12:22:21;;;;;;;6.57;5.87;;;;;;;;;;5083990;28;20439;-79
2023/06/21 12:24:47;;;;;;;10.50;6.67;;;;;;;;;;5086688;28;20466;-80
2023/06/21 12:27:16;;;;;;;6.87;5.73;;;;;;;;;;5087567;28;20473;-78
2023/06/21 12:29:52;;;;;;;5.47;4.93;;;;;;;;;;5073339;28;20477;-80
2023/06/21 12:32:19;;;;;;;5.60;5.00;;;;;;;;;;5081412;28;20450;-79
2023/06/21 12:34:46;;;;;;;5.70;4.90;;;;;;;;;;5077276;28;20817;-80
2023/06/21 12:37:18;;;;;;;6.33;5.73;;;;;;;;;;5086693;28;20461;-81
2023/06/21 12:39:48;;;;;;;5.80;4.93;;;;;;;;;;5072949;28;20473;-78
2023/06/21 12:42:15;;;;;;;5.90;5.20;;;;;;;;;;5080039;28;20447;-80
2023/06/21 12:44:43;;;;;;;6.10;5.17;;;;;;;;;;5084453;28;20867;-80
2023/06/21 12:47:09;;;;;;;7.50;4.50;;;;;;;;;;5084126;28;20466;-79
2023/06/21 12:49:35;;;;;;;4.90;4.50;;;;;;;;;;5085545;28;20850;-81
2023/06/21 12:52:03;;;;;;;4.97;4.23;;;;;;;;;;5090131;28;20445;-80
2023/06/21 12:54:30;;;;;;;6.67;4.20;;;;;;;;;;5088280;28;20470;-79
2023/06/21 12:56:58;;;;;;;4.47;3.97;;;;;;;;;;5080260;28;20447;-80
2023/06/21 12:59:26;;;;;;;7.03;4.83;;;;;;;;;;5092472;28;20478;-80
2023/06/21 13:01:55;;;;;;;9.10;4.70;;;;;;;;;;5086625;28;20919;-81
2023/06/21 13:04:22;;;;;;;5.30;4.33;;;;;;;;;;5078959;28;20486;-79
2023/06/21 13:06:48;;;;;;;5.57;4.60;;;;;;;;;;5097642;28;20446;-81
2023/06/21 13:09:16;;;;;;;5.77;4.70;;;;;;;;;;5086707;28;20496;-79
2023/06/21 13:11:44;;;;;;;4.80;4.40;;;;;;;;;;5083833;28;20438;-81
2023/06/21 13:14:11;;;;;;;4.60;4.20;;;;;;;;;;5075212;28;20901;-80
2023/06/21 13:16:38;;;;;;;5.30;4.47;;;;;;;;;;5080878;28;20459;-81
2023/06/21 13:19:06;;;;;;;7.00;4.83;;;;;;;;;;5086545;28;20470;-80
2023/06/21 13:21:33;;;;;;;5.20;4.70;;;;;;;;;;5089812;28;20445;-78
2023/06/21 13:24:00;;;;;;;5.30;4.70;;;;;;;;;;5087274;28;20459;-79
2023/06/21 13:26:28;;;;;;;4.77;4.37;;;;;;;;;;5090151;28;20520;-79
2023/06/21 13:28:54;;;;;;;4.50;4.10;;;;;;;;;;5075665;28;20466;-80
2023/06/21 13:31:21;;;;;;;5.40;4.90;;;;;;;;;;5091161;28;20443;-80
2023/06/21 13:33:47;;;;;;;4.30;3.50;;;;;;;;;;5073443;28;20458;-80
2023/06/21 13:36:14;;;;;;;4.00;3.70;;;;;;;;;;5083108;28;20470;-79
2023/06/21 13:38:42;;;;;;;5.50;3.70;;;;;;;;;;5079634;28;20458;-79
2023/06/21 13:41:08;;;;;;;4.03;3.53;;;;;;;;;;5086177;28;20457;-79
2023/06/21 13:43:37;;;;;;;4.93;4.30;;;;;;;;;;5089622;28;20991;-80
2023/06/21 13:46:04;;;;;;;4.33;3.93;;;;;;;;;;5090692;28;20958;-80
2023/06/21 13:48:30;;;;;;;4.43;3.70;;;;;;;;;;5087912;28;20454;-79
2023/06/21 13:50:57;;;;;;;4.50;4.10;;;;;;;;;;5095157;28;20473;-80
2023/06/21 13:53:23;;;;;;;4.50;3.17;;;;;;;;;;5088774;28;20451;-79
2023/06/21 13:55:50;;;;;;;3.70;3.40;;;;;;;;;;5090241;28;20469;-78
2023/06/21 13:58:17;;;;;;;4.43;3.90;;;;;;;;;;5083022;28;20470;-79
2023/06/21 14:00:45;;;;;;;5.37;3.80;;;;;;;;;;5075753;28;20463;-81
2023/06/21 14:03:12;;;;;;;5.10;4.00;;;;;;;;;;5094403;28;20454;-81
2023/06/21 14:05:38;;;;;;;4.10;3.70;;;;;;;;;;5084273;28;20482;-80
2023/06/21 14:08:05;;;;;;;5.83;3.80;;;;;;;;;;5084458;28;20463;-79
2023/06/21 14:10:32;;;;;;;4.30;3.90;;;;;;;;;;5087890;28;20466;-79
2023/06/21 14:12:59;;;;;;;5.03;4.53;;;;;;;;;;5077634;28;20825;-80
2023/06/21 14:15:26;;;;;;;3.60;3.30;;;;;;;;;;5096177;28;20462;-78
2023/06/21 14:17:57;;;;;;;3.90;3.40;;;;;;;;;;5081965;28;20463;-79
2023/06/21 14:20:23;;;;;;;4.90;3.63;;;;;;;;;;5093327;28;20475;-79
2023/06/21 14:22:49;;;;;;;4.70;3.90;;;;;;;;;;5084283;28;20454;-80
2023/06/21 14:25:16;;;;;;;4.47;3.77;;;;;;;;;;5088826;28;20490;-79